S C — FGF7634 — position and weather

sailwx.info

Track history (hours):
 
Tides and Currents Weather Stations Pressure Air Temp Water Temp Dewpoint Dewpoint Depression Visibility Wind Speed Wind Dir Waves Ship Positions

S C

Last reported at 2014-Aug-15 14:32 UTC. Time now 2014-Aug-20 08:48 UTC.
Position N 49°29' E 000°07'.

; draft 1 m.

Type: Pilot. MMSI: 227001820.

Date/timePositionNaut miles runAvg speedWind from/ knotsBaromVisibWave heightAir tempDewpointWater temp
2014-Aug-15 14:32N 49°29' E 000°07'  
2014-Aug-11 12:33N 49°29' E 000°07'0 0.0
2014-Aug-11 11:33N 49°29' E 000°07'0 0.0
2014-Aug-11 10:34N 49°29' E 000°07'5 4.6
2014-Aug-11 09:34N 49°30' W 000°00'5 4.5
2014-Aug-11 08:33N 49°29' E 000°07'0 0.0
2014-Aug-11 07:33N 49°29' E 000°07'0 0.0
2014-Aug-11 06:34N 49°29' E 000°07'3 2.8
2014-Aug-11 05:34N 49°30' E 000°03'5 5.3
2014-Aug-11 04:33N 49°31' W 000°05'8 8.1
2014-Aug-11 03:33N 49°29' E 000°07'6 5.5
2014-Aug-11 02:34N 49°30' W 000°01'6 5.5
2014-Aug-11 01:33N 49°29' E 000°07'0 0.0
2014-Aug-11 00:33N 49°29' E 000°07'0 0.0
2014-Aug-10 23:33N 49°29' E 000°07'0 0.0
2014-Aug-10 22:33N 49°29' E 000°07'6 6.1
2014-Aug-10 21:33N 49°31' W 000°02'6 3.0
2014-Aug-10 19:33N 49°29' E 000°07'2 1.7
2014-Aug-10 18:33N 49°29' E 000°04'7 7.4
2014-Aug-10 17:33N 49°32' W 000°07'9 9.2
2014-Aug-10 16:34N 49°29' E 000°07'0 0.0
2014-Aug-10 15:33N 49°29' E 000°07'0 0.0
2014-Aug-10 14:34N 49°29' E 000°07'0 0.0
2014-Aug-10 13:33N 49°29' E 000°07'0 0.0
2014-Aug-10 12:33N 49°29' E 000°07'0 0.0
2014-Aug-10 11:33N 49°29' E 000°07'3 3.1
2014-Aug-10 10:33N 49°30' E 000°02'3 2.6
2014-Aug-10 09:34N 49°29' E 000°06'1 0.5
2014-Aug-10 08:33N 49°29' E 000°07'0 0.0
2014-Aug-10 07:33N 49°29' E 000°07'0 0.0
2014-Aug-10 06:33N 49°29' E 000°07'0 0.0
2014-Aug-10 05:33N 49°29' E 000°07'0 0.0
2014-Aug-10 04:33N 49°29' E 000°07'0 0.0
2014-Aug-10 03:33N 49°29' E 000°07'0 0.0
2014-Aug-10 02:33N 49°29' E 000°07'0 0.0
2014-Aug-10 01:33N 49°29' E 000°07'0 0.0
2014-Aug-10 00:33N 49°29' E 000°07'0 0.0
2014-Aug-09 23:33N 49°29' E 000°07'0 0.0
2014-Aug-09 22:33N 49°29' E 000°07'0 0.0
2014-Aug-09 21:33N 49°29' E 000°07'5 5.3
2014-Aug-09 20:33N 49°30' W 000°01'4 3.5
2014-Aug-09 19:33N 49°28' E 000°03'3 2.6
2014-Aug-09 18:33N 49°29' E 000°07'8 8.3
2014-Aug-09 17:33N 49°31' W 000°05'8 8.2
2014-Aug-09 16:33N 49°29' E 000°07'0 0.0
2014-Aug-09 15:33N 49°29' E 000°07'0 0.1
2014-Aug-09 14:33N 49°29' E 000°07'1 0.8
2014-Aug-09 13:33N 49°29' E 000°05'1 0.9
2014-Aug-09 12:34N 49°29' E 000°07'7 6.5
2014-Aug-09 11:33N 49°31' W 000°03'3 2.9
2014-Aug-09 10:33N 49°30' E 000°01'3 2.6
2014-Aug-09 09:33N 49°29' E 000°05'1 1.1
2014-Aug-09 08:33N 49°29' E 000°07'0 0.0
2014-Aug-09 07:33N 49°29' E 000°07'0 0.0
2014-Aug-09 06:33N 49°29' E 000°07'0 0.0
2014-Aug-09 05:33N 49°29' E 000°07'0 0.0
2014-Aug-09 04:33N 49°29' E 000°07'0 0.0
2014-Aug-09 03:33N 49°29' E 000°07'4 4.5
2014-Aug-09 02:33N 49°30' W 000°00'4 3.8
2014-Aug-09 01:33N 49°29' E 000°06'1 0.6
2014-Aug-09 00:33N 49°29' E 000°07'0 0.0
2014-Aug-08 23:33N 49°29' E 000°07'0 0.0
2014-Aug-08 22:33N 49°29' E 000°07'  
Track history (hours):
 
Tides and Currents Weather Stations Pressure Air Temp Water Temp Dewpoint Dewpoint Depression Visibility Wind Speed Wind Dir Waves Ship Positions

S C

Last reported at 2014-Aug-15 14:32 UTC. Time now 2014-Aug-20 08:48 UTC.
Position N 49°29' E 000°07'.

; draft 1 m.

Type: Pilot. MMSI: 227001820.

Date/timePositionNaut miles runAvg speedWind from/ knotsBaromVisibWave heightAir tempDewpointWater temp
2014-Aug-15 14:32N 49°29' E 000°07'  
2014-Aug-11 12:33N 49°29' E 000°07'0 0.0
2014-Aug-11 11:33N 49°29' E 000°07'0 0.0
2014-Aug-11 10:34N 49°29' E 000°07'5 4.6
2014-Aug-11 09:34N 49°30' W 000°00'5 4.5
2014-Aug-11 08:33N 49°29' E 000°07'0 0.0
2014-Aug-11 07:33N 49°29' E 000°07'0 0.0
2014-Aug-11 06:34N 49°29' E 000°07'3 2.8
2014-Aug-11 05:34N 49°30' E 000°03'5 5.3
2014-Aug-11 04:33N 49°31' W 000°05'8 8.1
2014-Aug-11 03:33N 49°29' E 000°07'6 5.5
2014-Aug-11 02:34N 49°30' W 000°01'6 5.5
2014-Aug-11 01:33N 49°29' E 000°07'0 0.0
2014-Aug-11 00:33N 49°29' E 000°07'0 0.0
2014-Aug-10 23:33N 49°29' E 000°07'0 0.0
2014-Aug-10 22:33N 49°29' E 000°07'6 6.1
2014-Aug-10 21:33N 49°31' W 000°02'6 3.0
2014-Aug-10 19:33N 49°29' E 000°07'2 1.7
2014-Aug-10 18:33N 49°29' E 000°04'7 7.4
2014-Aug-10 17:33N 49°32' W 000°07'9 9.2
2014-Aug-10 16:34N 49°29' E 000°07'0 0.0
2014-Aug-10 15:33N 49°29' E 000°07'0 0.0
2014-Aug-10 14:34N 49°29' E 000°07'0 0.0
2014-Aug-10 13:33N 49°29' E 000°07'0 0.0
2014-Aug-10 12:33N 49°29' E 000°07'0 0.0
2014-Aug-10 11:33N 49°29' E 000°07'3 3.1
2014-Aug-10 10:33N 49°30' E 000°02'3 2.6
2014-Aug-10 09:34N 49°29' E 000°06'1 0.5
2014-Aug-10 08:33N 49°29' E 000°07'0 0.0
2014-Aug-10 07:33N 49°29' E 000°07'0 0.0
2014-Aug-10 06:33N 49°29' E 000°07'0 0.0
2014-Aug-10 05:33N 49°29' E 000°07'0 0.0
2014-Aug-10 04:33N 49°29' E 000°07'0 0.0
2014-Aug-10 03:33N 49°29' E 000°07'0 0.0
2014-Aug-10 02:33N 49°29' E 000°07'0 0.0
2014-Aug-10 01:33N 49°29' E 000°07'0 0.0
2014-Aug-10 00:33N 49°29' E 000°07'0 0.0
2014-Aug-09 23:33N 49°29' E 000°07'0 0.0
2014-Aug-09 22:33N 49°29' E 000°07'0 0.0
2014-Aug-09 21:33N 49°29' E 000°07'5 5.3
2014-Aug-09 20:33N 49°30' W 000°01'4 3.5
2014-Aug-09 19:33N 49°28' E 000°03'3 2.6
2014-Aug-09 18:33N 49°29' E 000°07'8 8.3
2014-Aug-09 17:33N 49°31' W 000°05'8 8.2
2014-Aug-09 16:33N 49°29' E 000°07'0 0.0
2014-Aug-09 15:33N 49°29' E 000°07'0 0.1
2014-Aug-09 14:33N 49°29' E 000°07'1 0.8
2014-Aug-09 13:33N 49°29' E 000°05'1 0.9
2014-Aug-09 12:34N 49°29' E 000°07'7 6.5
2014-Aug-09 11:33N 49°31' W 000°03'3 2.9
2014-Aug-09 10:33N 49°30' E 000°01'3 2.6
2014-Aug-09 09:33N 49°29' E 000°05'1 1.1
2014-Aug-09 08:33N 49°29' E 000°07'0 0.0
2014-Aug-09 07:33N 49°29' E 000°07'0 0.0
2014-Aug-09 06:33N 49°29' E 000°07'0 0.0
2014-Aug-09 05:33N 49°29' E 000°07'0 0.0
2014-Aug-09 04:33N 49°29' E 000°07'0 0.0
2014-Aug-09 03:33N 49°29' E 000°07'4 4.5
2014-Aug-09 02:33N 49°30' W 000°00'4 3.8
2014-Aug-09 01:33N 49°29' E 000°06'1 0.6
2014-Aug-09 00:33N 49°29' E 000°07'0 0.0
2014-Aug-08 23:33N 49°29' E 000°07'0 0.0
2014-Aug-08 22:33N 49°29' E 000°07'  

Dump ship's entire track history